sensor_id;sensor_type;location;lat;lon;timestamp;temperature;humidity
10051;DHT22;5065;46.942;7.432;2022-12-07T00:01:14;4.40;99.90
10051;DHT22;5065;46.942;7.432;2022-12-07T00:03:43;4.40;99.90
10051;DHT22;5065;46.942;7.432;2022-12-07T00:06:14;4.50;99.90
10051;DHT22;5065;46.942;7.432;2022-12-07T00:08:41;4.40;99.90
10051;DHT22;5065;46.942;7.432;2022-12-07T00:11:10;4.40;99.90
10051;DHT22;5065;46.942;7.432;2022-12-07T00:13:38;4.40;99.90
10051;DHT22;5065;46.942;7.432;2022-12-07T00:16:08;4.40;99.90
10051;DHT22;5065;46.942;7.432;2022-12-07T00:18:37;4.40;99.90
10051;DHT22;5065;46.942;7.432;2022-12-07T00:21:09;4.40;99.90
10051;DHT22;5065;46.942;7.432;2022-12-07T00:23:38;4.40;99.90
10051;DHT22;5065;46.942;7.432;2022-12-07T00:26:07;4.50;99.90
10051;DHT22;5065;46.942;7.432;2022-12-07T00:28:34;4.40;99.90
10051;DHT22;5065;46.942;7.432;2022-12-07T00:31:03;4.40;99.90
10051;DHT22;5065;46.942;7.432;2022-12-07T00:33:31;4.40;99.90
10051;DHT22;5065;46.942;7.432;2022-12-07T00:35:59;4.40;99.90
10051;DHT22;5065;46.942;7.432;2022-12-07T00:38:28;4.40;99.90
10051;DHT22;5065;46.942;7.432;2022-12-07T00:40:59;4.30;99.90
10051;DHT22;5065;46.942;7.432;2022-12-07T00:43:27;4.40;99.90
10051;DHT22;5065;46.942;7.432;2022-12-07T00:45:54;4.40;99.90
10051;DHT22;5065;46.942;7.432;2022-12-07T00:48:22;4.30;99.90
10051;DHT22;5065;46.942;7.432;2022-12-07T00:50:49;4.30;99.90
10051;DHT22;5065;46.942;7.432;2022-12-07T00:53:17;4.30;99.90
10051;DHT22;5065;46.942;7.432;2022-12-07T00:55:45;4.30;99.90
10051;DHT22;5065;46.942;7.432;2022-12-07T00:58:14;4.30;99.90
10051;DHT22;5065;46.942;7.432;2022-12-07T01:00:42;4.30;99.90
10051;DHT22;5065;46.942;7.432;2022-12-07T01:03:11;4.30;99.90
10051;DHT22;5065;46.942;7.432;2022-12-07T01:05:38;4.30;99.90
10051;DHT22;5065;46.942;7.432;2022-12-07T01:08:06;4.30;99.90
10051;DHT22;5065;46.942;7.432;2022-12-07T01:10:33;4.30;99.90
10051;DHT22;5065;46.942;7.432;2022-12-07T01:13:00;4.30;99.90
10051;DHT22;5065;46.942;7.432;2022-12-07T01:15:29;4.30;99.90
10051;DHT22;5065;46.942;7.432;2022-12-07T01:17:56;4.30;99.90
10051;DHT22;5065;46.942;7.432;2022-12-07T01:20:23;4.30;99.90
10051;DHT22;5065;46.942;7.432;2022-12-07T01:22:50;4.30;99.90
10051;DHT22;5065;46.942;7.432;2022-12-07T01:25:17;4.40;99.90
10051;DHT22;5065;46.942;7.432;2022-12-07T01:27:45;4.40;99.90
10051;DHT22;5065;46.942;7.432;2022-12-07T01:30:13;4.40;99.90
10051;DHT22;5065;46.942;7.432;2022-12-07T01:32:42;4.40;99.90
10051;DHT22;5065;46.942;7.432;2022-12-07T01:35:10;4.40;99.90
10051;DHT22;5065;46.942;7.432;2022-12-07T01:37:38;4.50;99.90
10051;DHT22;5065;46.942;7.432;2022-12-07T01:40:07;4.40;99.90
10051;DHT22;5065;46.942;7.432;2022-12-07T01:42:35;4.40;99.90
10051;DHT22;5065;46.942;7.432;2022-12-07T01:45:34;4.30;99.90
10051;DHT22;5065;46.942;7.432;2022-12-07T01:48:05;4.40;99.90
10051;DHT22;5065;46.942;7.432;2022-12-07T01:50:34;4.50;99.90
10051;DHT22;5065;46.942;7.432;2022-12-07T01:53:04;4.50;99.90
10051;DHT22;5065;46.942;7.432;2022-12-07T01:55:35;4.40;99.90
10051;DHT22;5065;46.942;7.432;2022-12-07T01:58:04;4.40;99.90
10051;DHT22;5065;46.942;7.432;2022-12-07T02:00:31;4.40;99.90
10051;DHT22;5065;46.942;7.432;2022-12-07T02:03:06;4.40;99.90
10051;DHT22;5065;46.942;7.432;2022-12-07T02:05:35;4.30;99.90
10051;DHT22;5065;46.942;7.432;2022-12-07T02:08:04;4.30;99.90
10051;DHT22;5065;46.942;7.432;2022-12-07T02:10:32;4.30;99.90
10051;DHT22;5065;46.942;7.432;2022-12-07T02:13:02;4.40;99.90
10051;DHT22;5065;46.942;7.432;2022-12-07T02:15:39;4.40;99.90
10051;DHT22;5065;46.942;7.432;2022-12-07T02:18:16;4.40;99.90
10051;DHT22;5065;46.942;7.432;2022-12-07T02:20:47;4.40;99.90
10051;DHT22;5065;46.942;7.432;2022-12-07T02:23:38;4.40;99.90
10051;DHT22;5065;46.942;7.432;2022-12-07T02:26:24;4.30;99.90
10051;DHT22;5065;46.942;7.432;2022-12-07T02:29:11;4.30;99.90
10051;DHT22;5065;46.942;7.432;2022-12-07T02:31:45;4.30;99.90
10051;DHT22;5065;46.942;7.432;2022-12-07T02:34:19;4.30;99.90
10051;DHT22;5065;46.942;7.432;2022-12-07T02:36:52;4.30;99.90
10051;DHT22;5065;46.942;7.432;2022-12-07T02:39:28;4.20;99.90
10051;DHT22;5065;46.942;7.432;2022-12-07T02:42:01;4.10;99.90
10051;DHT22;5065;46.942;7.432;2022-12-07T02:44:32;3.80;99.90
10051;DHT22;5065;46.942;7.432;2022-12-07T02:47:02;3.60;99.90
10051;DHT22;5065;46.942;7.432;2022-12-07T02:49:30;3.70;99.90
10051;DHT22;5065;46.942;7.432;2022-12-07T02:51:58;3.90;99.90
10051;DHT22;5065;46.942;7.432;2022-12-07T02:54:25;3.90;99.90
10051;DHT22;5065;46.942;7.432;2022-12-07T02:56:58;3.90;99.90
10051;DHT22;5065;46.942;7.432;2022-12-07T02:59:38;3.80;99.90
10051;DHT22;5065;46.942;7.432;2022-12-07T03:02:17;3.90;99.90
10051;DHT22;5065;46.942;7.432;2022-12-07T03:04:54;3.90;99.90
10051;DHT22;5065;46.942;7.432;2022-12-07T03:07:30;4.10;99.90
10051;DHT22;5065;46.942;7.432;2022-12-07T03:10:05;4.00;99.90
10051;DHT22;5065;46.942;7.432;2022-12-07T03:12:38;4.00;99.90
10051;DHT22;5065;46.942;7.432;2022-12-07T03:15:15;3.90;99.90
10051;DHT22;5065;46.942;7.432;2022-12-07T03:17:45;4.00;99.90
10051;DHT22;5065;46.942;7.432;2022-12-07T03:20:15;4.00;99.90
10051;DHT22;5065;46.942;7.432;2022-12-07T03:22:44;4.00;99.90
10051;DHT22;5065;46.942;7.432;2022-12-07T03:25:15;4.00;99.90
10051;DHT22;5065;46.942;7.432;2022-12-07T03:27:48;4.10;99.90
10051;DHT22;5065;46.942;7.432;2022-12-07T03:30:20;4.10;99.90
10051;DHT22;5065;46.942;7.432;2022-12-07T03:32:50;4.10;99.90
10051;DHT22;5065;46.942;7.432;2022-12-07T03:35:23;4.10;99.90
10051;DHT22;5065;46.942;7.432;2022-12-07T03:37:54;4.00;99.90
10051;DHT22;5065;46.942;7.432;2022-12-07T03:40:26;4.00;99.90
10051;DHT22;5065;46.942;7.432;2022-12-07T03:42:56;4.00;99.90
10051;DHT22;5065;46.942;7.432;2022-12-07T03:45:32;4.10;99.90
10051;DHT22;5065;46.942;7.432;2022-12-07T03:48:08;4.00;99.90
10051;DHT22;5065;46.942;7.432;2022-12-07T03:50:40;4.10;99.90
10051;DHT22;5065;46.942;7.432;2022-12-07T03:53:13;4.20;99.90
10051;DHT22;5065;46.942;7.432;2022-12-07T03:55:43;4.20;99.90
10051;DHT22;5065;46.942;7.432;2022-12-07T03:58:13;4.20;99.90
10051;DHT22;5065;46.942;7.432;2022-12-07T04:00:45;4.10;99.90
10051;DHT22;5065;46.942;7.432;2022-12-07T04:03:13;4.20;99.90
10051;DHT22;5065;46.942;7.432;2022-12-07T04:05:41;4.20;99.90
10051;DHT22;5065;46.942;7.432;2022-12-07T04:08:09;4.20;99.90
10051;DHT22;5065;46.942;7.432;2022-12-07T04:10:36;4.20;99.90
10051;DHT22;5065;46.942;7.432;2022-12-07T04:13:03;4.10;99.90
10051;DHT22;5065;46.942;7.432;2022-12-07T04:15:31;4.20;99.90
10051;DHT22;5065;46.942;7.432;2022-12-07T04:18:00;3.90;99.90
10051;DHT22;5065;46.942;7.432;2022-12-07T04:20:27;4.00;99.90
10051;DHT22;5065;46.942;7.432;2022-12-07T04:22:55;4.10;99.90
10051;DHT22;5065;46.942;7.432;2022-12-07T04:25:22;4.00;99.90
10051;DHT22;5065;46.942;7.432;2022-12-07T04:27:49;4.00;99.90
10051;DHT22;5065;46.942;7.432;2022-12-07T04:30:18;4.00;99.90
10051;DHT22;5065;46.942;7.432;2022-12-07T04:32:45;4.00;99.90
10051;DHT22;5065;46.942;7.432;2022-12-07T04:35:14;4.10;99.90
10051;DHT22;5065;46.942;7.432;2022-12-07T04:37:41;4.10;99.90
10051;DHT22;5065;46.942;7.432;2022-12-07T04:40:09;4.10;99.90
10051;DHT22;5065;46.942;7.432;2022-12-07T04:42:37;4.20;99.90
10051;DHT22;5065;46.942;7.432;2022-12-07T04:45:05;4.30;99.90
10051;DHT22;5065;46.942;7.432;2022-12-07T04:47:32;4.20;99.90
10051;DHT22;5065;46.942;7.432;2022-12-07T04:49:59;4.20;99.90
10051;DHT22;5065;46.942;7.432;2022-12-07T04:52:28;4.20;99.90
10051;DHT22;5065;46.942;7.432;2022-12-07T04:54:56;4.20;99.90
10051;DHT22;5065;46.942;7.432;2022-12-07T04:57:23;4.20;99.90
10051;DHT22;5065;46.942;7.432;2022-12-07T04:59:50;4.20;99.90
10051;DHT22;5065;46.942;7.432;2022-12-07T05:02:18;4.10;99.90
10051;DHT22;5065;46.942;7.432;2022-12-07T05:04:45;4.10;99.90
10051;DHT22;5065;46.942;7.432;2022-12-07T05:07:12;4.20;99.90
10051;DHT22;5065;46.942;7.432;2022-12-07T05:09:41;4.20;99.90
10051;DHT22;5065;46.942;7.432;2022-12-07T05:12:08;4.20;99.90
10051;DHT22;5065;46.942;7.432;2022-12-07T05:14:35;4.20;99.90
10051;DHT22;5065;46.942;7.432;2022-12-07T05:17:02;4.20;99.90
10051;DHT22;5065;46.942;7.432;2022-12-07T05:19:30;4.20;99.90
10051;DHT22;5065;46.942;7.432;2022-12-07T05:21:57;4.20;99.90
10051;DHT22;5065;46.942;7.432;2022-12-07T05:24:24;4.10;99.90
10051;DHT22;5065;46.942;7.432;2022-12-07T05:26:52;4.10;99.90
10051;DHT22;5065;46.942;7.432;2022-12-07T05:29:20;4.10;99.90
10051;DHT22;5065;46.942;7.432;2022-12-07T05:31:47;4.20;99.90
10051;DHT22;5065;46.942;7.432;2022-12-07T05:34:14;4.20;99.90
10051;DHT22;5065;46.942;7.432;2022-12-07T05:36:41;4.20;99.90
10051;DHT22;5065;46.942;7.432;2022-12-07T05:39:09;4.20;99.90
10051;DHT22;5065;46.942;7.432;2022-12-07T05:41:36;4.20;99.90
10051;DHT22;5065;46.942;7.432;2022-12-07T05:44:23;4.20;99.90
10051;DHT22;5065;46.942;7.432;2022-12-07T05:46:50;4.20;99.90
10051;DHT22;5065;46.942;7.432;2022-12-07T05:49:17;4.20;99.90
10051;DHT22;5065;46.942;7.432;2022-12-07T05:51:44;4.20;99.90
10051;DHT22;5065;46.942;7.432;2022-12-07T05:54:12;4.00;99.90
10051;DHT22;5065;46.942;7.432;2022-12-07T05:56:39;4.10;99.90
10051;DHT22;5065;46.942;7.432;2022-12-07T05:59:08;4.10;99.90
10051;DHT22;5065;46.942;7.432;2022-12-07T06:01:55;4.10;99.90
10051;DHT22;5065;46.942;7.432;2022-12-07T06:04:24;4.10;99.90
10051;DHT22;5065;46.942;7.432;2022-12-07T06:06:51;4.10;99.90
10051;DHT22;5065;46.942;7.432;2022-12-07T06:09:19;4.10;99.90
10051;DHT22;5065;46.942;7.432;2022-12-07T06:11:47;4.20;99.90
10051;DHT22;5065;46.942;7.432;2022-12-07T06:14:31;4.20;99.90
10051;DHT22;5065;46.942;7.432;2022-12-07T06:17:00;4.10;99.90
10051;DHT22;5065;46.942;7.432;2022-12-07T06:19:28;4.10;99.90
10051;DHT22;5065;46.942;7.432;2022-12-07T06:21:55;4.00;99.90
10051;DHT22;5065;46.942;7.432;2022-12-07T06:24:23;4.00;99.90
10051;DHT22;5065;46.942;7.432;2022-12-07T06:26:50;4.10;99.90
10051;DHT22;5065;46.942;7.432;2022-12-07T06:29:18;4.10;99.90
10051;DHT22;5065;46.942;7.432;2022-12-07T06:31:46;4.10;99.90
10051;DHT22;5065;46.942;7.432;2022-12-07T06:34:19;4.10;99.90
10051;DHT22;5065;46.942;7.432;2022-12-07T06:36:48;4.20;99.90
10051;DHT22;5065;46.942;7.432;2022-12-07T06:39:21;4.20;99.90
10051;DHT22;5065;46.942;7.432;2022-12-07T06:41:49;4.20;99.90
10051;DHT22;5065;46.942;7.432;2022-12-07T06:44:17;4.20;99.90
10051;DHT22;5065;46.942;7.432;2022-12-07T06:46:44;4.30;99.90
10051;DHT22;5065;46.942;7.432;2022-12-07T06:49:12;4.20;99.90
10051;DHT22;5065;46.942;7.432;2022-12-07T06:51:40;4.20;99.90
10051;DHT22;5065;46.942;7.432;2022-12-07T06:54:08;4.20;99.90
10051;DHT22;5065;46.942;7.432;2022-12-07T06:56:35;4.20;99.90
10051;DHT22;5065;46.942;7.432;2022-12-07T06:59:03;4.30;99.90
10051;DHT22;5065;46.942;7.432;2022-12-07T07:01:31;4.20;99.90
10051;DHT22;5065;46.942;7.432;2022-12-07T07:03:58;4.20;99.90
10051;DHT22;5065;46.942;7.432;2022-12-07T07:06:26;4.30;99.90
10051;DHT22;5065;46.942;7.432;2022-12-07T07:08:54;4.20;99.90
10051;DHT22;5065;46.942;7.432;2022-12-07T07:11:22;4.20;99.90
10051;DHT22;5065;46.942;7.432;2022-12-07T07:13:49;4.10;99.90
10051;DHT22;5065;46.942;7.432;2022-12-07T07:16:17;4.10;99.90
10051;DHT22;5065;46.942;7.432;2022-12-07T07:18:44;4.10;99.90
10051;DHT22;5065;46.942;7.432;2022-12-07T07:21:11;4.20;99.90
10051;DHT22;5065;46.942;7.432;2022-12-07T07:23:38;4.20;99.90
10051;DHT22;5065;46.942;7.432;2022-12-07T07:26:07;4.30;99.90
10051;DHT22;5065;46.942;7.432;2022-12-07T07:28:34;4.30;99.90
10051;DHT22;5065;46.942;7.432;2022-12-07T07:31:01;4.20;99.90
10051;DHT22;5065;46.942;7.432;2022-12-07T07:33:28;4.30;99.90
10051;DHT22;5065;46.942;7.432;2022-12-07T07:35:56;4.30;99.90
10051;DHT22;5065;46.942;7.432;2022-12-07T07:38:23;4.30;99.90
10051;DHT22;5065;46.942;7.432;2022-12-07T07:40:50;4.30;99.90
10051;DHT22;5065;46.942;7.432;2022-12-07T07:43:19;4.30;99.90
10051;DHT22;5065;46.942;7.432;2022-12-07T07:45:46;4.30;99.90
10051;DHT22;5065;46.942;7.432;2022-12-07T07:48:13;4.20;99.90
10051;DHT22;5065;46.942;7.432;2022-12-07T07:50:40;4.20;99.90
10051;DHT22;5065;46.942;7.432;2022-12-07T07:53:08;4.20;99.90
10051;DHT22;5065;46.942;7.432;2022-12-07T07:55:35;4.20;99.90
10051;DHT22;5065;46.942;7.432;2022-12-07T07:58:02;4.20;99.90
10051;DHT22;5065;46.942;7.432;2022-12-07T08:00:31;4.20;99.90
10051;DHT22;5065;46.942;7.432;2022-12-07T08:02:58;4.20;99.90
10051;DHT22;5065;46.942;7.432;2022-12-07T08:05:25;4.20;99.90
10051;DHT22;5065;46.942;7.432;2022-12-07T08:07:52;4.20;99.90
10051;DHT22;5065;46.942;7.432;2022-12-07T08:10:20;4.20;99.90
10051;DHT22;5065;46.942;7.432;2022-12-07T08:12:47;4.10;99.90
10051;DHT22;5065;46.942;7.432;2022-12-07T08:15:33;4.10;99.90
10051;DHT22;5065;46.942;7.432;2022-12-07T08:18:00;4.10;99.90
10051;DHT22;5065;46.942;7.432;2022-12-07T08:20:29;4.10;99.90
10051;DHT22;5065;46.942;7.432;2022-12-07T08:22:56;4.10;99.90
10051;DHT22;5065;46.942;7.432;2022-12-07T08:25:23;4.10;99.90
10051;DHT22;5065;46.942;7.432;2022-12-07T08:27:51;4.20;99.90
10051;DHT22;5065;46.942;7.432;2022-12-07T08:30:19;4.10;99.90
10051;DHT22;5065;46.942;7.432;2022-12-07T08:32:48;4.10;99.90
10051;DHT22;5065;46.942;7.432;2022-12-07T08:35:16;4.10;99.90
10051;DHT22;5065;46.942;7.432;2022-12-07T08:37:43;4.20;99.90
10051;DHT22;5065;46.942;7.432;2022-12-07T08:40:12;4.30;99.90
10051;DHT22;5065;46.942;7.432;2022-12-07T08:42:41;4.20;99.90
10051;DHT22;5065;46.942;7.432;2022-12-07T08:45:12;4.20;99.90
10051;DHT22;5065;46.942;7.432;2022-12-07T08:47:41;4.20;99.90
10051;DHT22;5065;46.942;7.432;2022-12-07T08:50:11;4.00;99.90
10051;DHT22;5065;46.942;7.432;2022-12-07T08:52:40;4.10;99.90
10051;DHT22;5065;46.942;7.432;2022-12-07T08:55:09;4.10;99.90
10051;DHT22;5065;46.942;7.432;2022-12-07T08:57:38;4.10;99.90
10051;DHT22;5065;46.942;7.432;2022-12-07T09:00:07;4.20;99.90
10051;DHT22;5065;46.942;7.432;2022-12-07T09:02:35;4.20;99.90
10051;DHT22;5065;46.942;7.432;2022-12-07T09:05:03;4.20;99.90
10051;DHT22;5065;46.942;7.432;2022-12-07T09:07:32;4.20;99.90
10051;DHT22;5065;46.942;7.432;2022-12-07T09:10:00;4.20;99.90
10051;DHT22;5065;46.942;7.432;2022-12-07T09:12:27;4.30;99.90
10051;DHT22;5065;46.942;7.432;2022-12-07T09:14:55;4.30;99.90
10051;DHT22;5065;46.942;7.432;2022-12-07T09:17:22;4.30;99.90
10051;DHT22;5065;46.942;7.432;2022-12-07T09:19:49;4.40;99.90
10051;DHT22;5065;46.942;7.432;2022-12-07T09:22:17;4.40;99.90
10051;DHT22;5065;46.942;7.432;2022-12-07T09:24:45;4.40;99.90
10051;DHT22;5065;46.942;7.432;2022-12-07T09:27:13;4.40;99.90
10051;DHT22;5065;46.942;7.432;2022-12-07T09:29:42;4.50;99.90
10051;DHT22;5065;46.942;7.432;2022-12-07T09:32:09;4.50;99.90
10051;DHT22;5065;46.942;7.432;2022-12-07T09:34:36;4.50;99.90
10051;DHT22;5065;46.942;7.432;2022-12-07T09:37:03;4.50;99.90
10051;DHT22;5065;46.942;7.432;2022-12-07T09:39:30;4.50;99.90
10051;DHT22;5065;46.942;7.432;2022-12-07T09:41:59;4.60;99.90
10051;DHT22;5065;46.942;7.432;2022-12-07T09:44:29;4.50;99.90
10051;DHT22;5065;46.942;7.432;2022-12-07T09:46:57;4.60;99.90
10051;DHT22;5065;46.942;7.432;2022-12-07T09:49:27;4.50;99.90
10051;DHT22;5065;46.942;7.432;2022-12-07T09:52:04;4.50;99.90
10051;DHT22;5065;46.942;7.432;2022-12-07T09:54:46;4.60;99.90
10051;DHT22;5065;46.942;7.432;2022-12-07T09:57:16;4.60;99.90
10051;DHT22;5065;46.942;7.432;2022-12-07T09:59:43;4.70;99.90
10051;DHT22;5065;46.942;7.432;2022-12-07T10:02:27;4.70;99.90
10051;DHT22;5065;46.942;7.432;2022-12-07T10:04:57;4.70;99.90
10051;DHT22;5065;46.942;7.432;2022-12-07T10:07:25;4.80;99.90
10051;DHT22;5065;46.942;7.432;2022-12-07T10:09:52;4.80;99.90
10051;DHT22;5065;46.942;7.432;2022-12-07T10:12:21;4.80;99.90
10051;DHT22;5065;46.942;7.432;2022-12-07T10:14:56;4.80;99.90
10051;DHT22;5065;46.942;7.432;2022-12-07T10:17:36;4.80;99.90
10051;DHT22;5065;46.942;7.432;2022-12-07T10:20:21;4.80;99.90
10051;DHT22;5065;46.942;7.432;2022-12-07T10:22:56;4.80;99.90
10051;DHT22;5065;46.942;7.432;2022-12-07T10:25:27;4.80;99.90
10051;DHT22;5065;46.942;7.432;2022-12-07T10:28:12;4.80;99.90
10051;DHT22;5065;46.942;7.432;2022-12-07T10:30:52;4.90;99.90
10051;DHT22;5065;46.942;7.432;2022-12-07T10:33:34;4.80;99.90
10051;DHT22;5065;46.942;7.432;2022-12-07T10:36:17;4.90;99.90
10051;DHT22;5065;46.942;7.432;2022-12-07T10:38:46;4.90;99.90
10051;DHT22;5065;46.942;7.432;2022-12-07T10:41:15;5.00;99.90
10051;DHT22;5065;46.942;7.432;2022-12-07T10:43:54;5.00;99.90
10051;DHT22;5065;46.942;7.432;2022-12-07T10:46:48;5.00;99.90
10051;DHT22;5065;46.942;7.432;2022-12-07T10:49:45;5.10;99.90
10051;DHT22;5065;46.942;7.432;2022-12-07T10:52:25;5.10;99.90
10051;DHT22;5065;46.942;7.432;2022-12-07T10:55:08;4.90;99.90
10051;DHT22;5065;46.942;7.432;2022-12-07T10:57:47;4.90;99.90
10051;DHT22;5065;46.942;7.432;2022-12-07T11:00:19;5.00;99.90
10051;DHT22;5065;46.942;7.432;2022-12-07T11:03:12;4.90;99.90
10051;DHT22;5065;46.942;7.432;2022-12-07T11:05:50;4.90;99.90
10051;DHT22;5065;46.942;7.432;2022-12-07T11:08:34;4.90;99.90
10051;DHT22;5065;46.942;7.432;2022-12-07T11:11:08;4.70;99.90
10051;DHT22;5065;46.942;7.432;2022-12-07T11:13:42;4.60;99.90
10051;DHT22;5065;46.942;7.432;2022-12-07T11:16:34;4.70;99.90
10051;DHT22;5065;46.942;7.432;2022-12-07T11:19:22;4.80;99.90
10051;DHT22;5065;46.942;7.432;2022-12-07T11:21:56;4.80;99.90
10051;DHT22;5065;46.942;7.432;2022-12-07T11:24:30;4.90;99.90
10051;DHT22;5065;46.942;7.432;2022-12-07T11:27:08;4.90;99.90
10051;DHT22;5065;46.942;7.432;2022-12-07T11:29:55;5.10;99.90
10051;DHT22;5065;46.942;7.432;2022-12-07T11:32:47;5.20;99.90
10051;DHT22;5065;46.942;7.432;2022-12-07T11:35:22;5.20;99.90
10051;DHT22;5065;46.942;7.432;2022-12-07T11:37:57;5.20;99.90
10051;DHT22;5065;46.942;7.432;2022-12-07T11:40:28;5.20;99.90
10051;DHT22;5065;46.942;7.432;2022-12-07T11:43:04;5.20;99.90
10051;DHT22;5065;46.942;7.432;2022-12-07T11:45:33;5.20;99.90
10051;DHT22;5065;46.942;7.432;2022-12-07T11:48:04;5.20;99.90
10051;DHT22;5065;46.942;7.432;2022-12-07T11:50:37;5.20;99.90
10051;DHT22;5065;46.942;7.432;2022-12-07T11:53:14;5.30;99.90
10051;DHT22;5065;46.942;7.432;2022-12-07T11:55:49;5.30;99.90
10051;DHT22;5065;46.942;7.432;2022-12-07T11:58:35;5.10;99.90
10051;DHT22;5065;46.942;7.432;2022-12-07T12:01:14;5.20;99.90
10051;DHT22;5065;46.942;7.432;2022-12-07T12:03:47;5.30;99.90
10051;DHT22;5065;46.942;7.432;2022-12-07T12:06:16;5.30;99.90
10051;DHT22;5065;46.942;7.432;2022-12-07T12:08:46;5.30;99.90
10051;DHT22;5065;46.942;7.432;2022-12-07T12:11:28;5.40;99.90
10051;DHT22;5065;46.942;7.432;2022-12-07T12:14:21;5.40;99.90
10051;DHT22;5065;46.942;7.432;2022-12-07T12:17:20;5.40;99.90
10051;DHT22;5065;46.942;7.432;2022-12-07T12:20:01;5.40;99.90
10051;DHT22;5065;46.942;7.432;2022-12-07T12:22:36;5.40;99.90
10051;DHT22;5065;46.942;7.432;2022-12-07T12:25:06;5.40;99.90
10051;DHT22;5065;46.942;7.432;2022-12-07T12:27:36;5.40;99.90
10051;DHT22;5065;46.942;7.432;2022-12-07T12:30:06;5.40;99.90
10051;DHT22;5065;46.942;7.432;2022-12-07T12:32:39;5.30;99.90
10051;DHT22;5065;46.942;7.432;2022-12-07T12:35:31;5.30;99.90
10051;DHT22;5065;46.942;7.432;2022-12-07T12:38:27;5.40;99.90
10051;DHT22;5065;46.942;7.432;2022-12-07T12:40:56;5.40;99.90
10051;DHT22;5065;46.942;7.432;2022-12-07T12:46:36;5.40;99.90
10051;DHT22;5065;46.942;7.432;2022-12-07T12:49:34;5.50;99.90
10051;DHT22;5065;46.942;7.432;2022-12-07T12:55:26;5.50;99.90
10051;DHT22;5065;46.942;7.432;2022-12-07T12:58:34;5.40;99.90
10051;DHT22;5065;46.942;7.432;2022-12-07T13:04:49;5.40;99.90
10051;DHT22;5065;46.942;7.432;2022-12-07T13:10:36;5.40;99.90
10051;DHT22;5065;46.942;7.432;2022-12-07T13:16:39;5.50;99.90
10051;DHT22;5065;46.942;7.432;2022-12-07T13:25:36;5.50;99.90
10051;DHT22;5065;46.942;7.432;2022-12-07T13:28:13;5.50;99.90
10051;DHT22;5065;46.942;7.432;2022-12-07T13:30:46;5.60;99.90
10051;DHT22;5065;46.942;7.432;2022-12-07T13:33:17;5.50;99.90
10051;DHT22;5065;46.942;7.432;2022-12-07T13:35:45;5.50;99.90
10051;DHT22;5065;46.942;7.432;2022-12-07T13:38:30;5.50;99.90
10051;DHT22;5065;46.942;7.432;2022-12-07T13:41:12;5.40;99.90
10051;DHT22;5065;46.942;7.432;2022-12-07T13:43:51;5.50;99.90
10051;DHT22;5065;46.942;7.432;2022-12-07T13:46:26;5.50;99.90
10051;DHT22;5065;46.942;7.432;2022-12-07T13:48:55;5.40;99.90
10051;DHT22;5065;46.942;7.432;2022-12-07T13:51:24;5.40;99.90
10051;DHT22;5065;46.942;7.432;2022-12-07T13:53:54;5.40;99.90
10051;DHT22;5065;46.942;7.432;2022-12-07T13:56:22;5.30;99.90
10051;DHT22;5065;46.942;7.432;2022-12-07T13:58:53;5.30;99.90
10051;DHT22;5065;46.942;7.432;2022-12-07T14:01:21;5.40;99.90
10051;DHT22;5065;46.942;7.432;2022-12-07T14:03:48;5.50;99.90
10051;DHT22;5065;46.942;7.432;2022-12-07T14:06:25;5.50;99.90
10051;DHT22;5065;46.942;7.432;2022-12-07T14:09:08;5.50;99.90
10051;DHT22;5065;46.942;7.432;2022-12-07T14:11:35;5.50;99.90
10051;DHT22;5065;46.942;7.432;2022-12-07T14:14:05;5.50;99.90
10051;DHT22;5065;46.942;7.432;2022-12-07T14:16:33;5.60;99.90
10051;DHT22;5065;46.942;7.432;2022-12-07T14:19:04;5.60;99.90
10051;DHT22;5065;46.942;7.432;2022-12-07T14:21:33;5.60;99.90
10051;DHT22;5065;46.942;7.432;2022-12-07T14:24:11;5.60;99.90
10051;DHT22;5065;46.942;7.432;2022-12-07T14:26:39;5.60;99.90
10051;DHT22;5065;46.942;7.432;2022-12-07T14:29:30;5.60;99.90
10051;DHT22;5065;46.942;7.432;2022-12-07T14:31:59;5.60;99.90
10051;DHT22;5065;46.942;7.432;2022-12-07T14:34:37;5.60;99.90
10051;DHT22;5065;46.942;7.432;2022-12-07T14:37:07;5.60;99.90
10051;DHT22;5065;46.942;7.432;2022-12-07T14:39:36;5.60;99.90
10051;DHT22;5065;46.942;7.432;2022-12-07T14:42:04;5.70;99.90
10051;DHT22;5065;46.942;7.432;2022-12-07T14:44:31;5.60;99.90
10051;DHT22;5065;46.942;7.432;2022-12-07T14:46:58;5.60;99.90
10051;DHT22;5065;46.942;7.432;2022-12-07T14:49:26;5.60;99.90
10051;DHT22;5065;46.942;7.432;2022-12-07T14:51:53;5.60;99.90
10051;DHT22;5065;46.942;7.432;2022-12-07T14:54:26;5.60;99.90
10051;DHT22;5065;46.942;7.432;2022-12-07T14:56:56;5.60;99.90
10051;DHT22;5065;46.942;7.432;2022-12-07T14:59:23;5.60;99.90
10051;DHT22;5065;46.942;7.432;2022-12-07T15:01:50;5.60;99.90
10051;DHT22;5065;46.942;7.432;2022-12-07T15:04:17;5.60;99.90
10051;DHT22;5065;46.942;7.432;2022-12-07T15:06:55;5.60;99.90
10051;DHT22;5065;46.942;7.432;2022-12-07T15:09:25;5.60;99.90
10051;DHT22;5065;46.942;7.432;2022-12-07T15:11:52;5.60;99.90
10051;DHT22;5065;46.942;7.432;2022-12-07T15:14:19;5.70;99.90
10051;DHT22;5065;46.942;7.432;2022-12-07T15:16:46;5.60;99.90
10051;DHT22;5065;46.942;7.432;2022-12-07T15:19:18;5.60;99.90
10051;DHT22;5065;46.942;7.432;2022-12-07T15:21:45;5.70;99.90
10051;DHT22;5065;46.942;7.432;2022-12-07T15:24:13;5.70;99.90
10051;DHT22;5065;46.942;7.432;2022-12-07T15:26:42;5.60;99.90
10051;DHT22;5065;46.942;7.432;2022-12-07T15:29:10;5.60;99.90
10051;DHT22;5065;46.942;7.432;2022-12-07T15:31:37;5.70;99.90
10051;DHT22;5065;46.942;7.432;2022-12-07T15:34:04;5.70;99.90
10051;DHT22;5065;46.942;7.432;2022-12-07T15:36:33;5.60;99.90
10051;DHT22;5065;46.942;7.432;2022-12-07T15:39:01;5.50;99.90
10051;DHT22;5065;46.942;7.432;2022-12-07T15:41:28;5.60;99.90
10051;DHT22;5065;46.942;7.432;2022-12-07T15:43:57;5.60;99.90
10051;DHT22;5065;46.942;7.432;2022-12-07T15:46:41;5.80;99.90
10051;DHT22;5065;46.942;7.432;2022-12-07T15:49:11;5.70;99.90
10051;DHT22;5065;46.942;7.432;2022-12-07T15:51:39;5.70;99.90
10051;DHT22;5065;46.942;7.432;2022-12-07T15:54:07;5.70;99.90
10051;DHT22;5065;46.942;7.432;2022-12-07T15:56:35;5.70;99.90
10051;DHT22;5065;46.942;7.432;2022-12-07T15:59:04;5.60;99.90
10051;DHT22;5065;46.942;7.432;2022-12-07T16:01:31;5.70;99.90
10051;DHT22;5065;46.942;7.432;2022-12-07T16:03:58;5.70;99.90
10051;DHT22;5065;46.942;7.432;2022-12-07T16:06:26;5.70;99.90
10051;DHT22;5065;46.942;7.432;2022-12-07T16:08:53;5.70;99.90
10051;DHT22;5065;46.942;7.432;2022-12-07T16:11:21;5.80;99.90
10051;DHT22;5065;46.942;7.432;2022-12-07T16:13:48;5.80;99.90
10051;DHT22;5065;46.942;7.432;2022-12-07T16:16:19;5.80;99.90
10051;DHT22;5065;46.942;7.432;2022-12-07T16:18:48;5.80;99.90
10051;DHT22;5065;46.942;7.432;2022-12-07T16:21:16;5.80;99.90
10051;DHT22;5065;46.942;7.432;2022-12-07T16:23:44;5.80;99.90
10051;DHT22;5065;46.942;7.432;2022-12-07T16:26:13;5.80;99.90
10051;DHT22;5065;46.942;7.432;2022-12-07T16:28:42;5.80;99.90
10051;DHT22;5065;46.942;7.432;2022-12-07T16:31:12;5.80;99.90
10051;DHT22;5065;46.942;7.432;2022-12-07T16:33:42;5.80;99.90
10051;DHT22;5065;46.942;7.432;2022-12-07T16:36:11;5.80;99.90
10051;DHT22;5065;46.942;7.432;2022-12-07T16:38:39;5.80;99.90
10051;DHT22;5065;46.942;7.432;2022-12-07T16:41:06;5.80;99.90
10051;DHT22;5065;46.942;7.432;2022-12-07T16:43:33;5.80;99.90
10051;DHT22;5065;46.942;7.432;2022-12-07T16:46:01;5.80;99.90
10051;DHT22;5065;46.942;7.432;2022-12-07T16:48:29;5.80;99.90
10051;DHT22;5065;46.942;7.432;2022-12-07T16:50:57;5.80;99.90